sensor_id;sensor_type;location;lat;lon;timestamp;P1;P4;P2;P0;N10;N4;N25;N1;N05;TS
84066;SPS30;74151;52.134;5.500;2024-01-15T00:00:50;3.79;3.74;3.60;3.28;25.89;25.88;25.84;25.61;21.79;53.67
84066;SPS30;74151;52.134;5.500;2024-01-15T00:03:25;7.96;7.11;5.26;2.94;23.59;23.49;23.04;20.91;15.08;86.03
84066;SPS30;74151;52.134;5.500;2024-01-15T00:05:59;4.61;4.20;3.26;2.08;16.67;16.63;16.42;15.32;11.72;72.28
84066;SPS30;74151;52.134;5.500;2024-01-15T00:08:36;4.80;4.36;3.38;2.10;16.82;16.77;16.56;15.39;11.67;70.41
84066;SPS30;74151;52.134;5.500;2024-01-15T00:11:14;3.24;3.02;2.53;1.88;14.83;14.80;14.69;14.10;11.34;75.70
84066;SPS30;74151;52.134;5.500;2024-01-15T00:13:48;3.11;3.06;2.89;2.56;20.19;20.19;20.14;19.89;16.82;52.21
84066;SPS30;74151;52.134;5.500;2024-01-15T00:16:25;3.37;3.20;2.78;2.20;17.24;17.23;17.13;16.62;13.61;54.91
84066;SPS30;74151;52.134;5.500;2024-01-15T00:19:02;2.57;2.44;2.22;1.86;14.60;14.59;14.51;14.19;11.82;55.16
84066;SPS30;74151;52.134;5.500;2024-01-15T00:21:42;2.74;2.52;2.07;1.44;11.32;11.30;11.19;10.63;8.38;69.46
84066;SPS30;74151;52.134;5.500;2024-01-15T00:24:19;5.32;4.72;3.47;1.89;15.26;15.19;14.91;13.47;9.60;88.82
84066;SPS30;74151;52.134;5.500;2024-01-15T00:26:54;4.87;4.24;2.92;1.34;10.82;10.76;10.48;8.98;5.66;94.08
84066;SPS30;74151;52.134;5.500;2024-01-15T00:29:28;3.22;3.00;2.48;1.79;14.18;14.18;14.03;13.40;10.72;78.28
84066;SPS30;74151;52.134;5.500;2024-01-15T00:32:05;2.86;2.70;2.31;1.81;14.26;14.23;14.16;13.69;11.18;50.90
84066;SPS30;74151;52.134;5.500;2024-01-15T00:34:42;4.90;4.34;3.12;1.64;13.14;13.08;12.80;11.42;7.91;95.26
84066;SPS30;74151;52.134;5.500;2024-01-15T00:37:16;3.71;3.34;2.53;1.49;11.91;11.88;11.70;10.76;7.92;72.88
84066;SPS30;74151;52.134;5.500;2024-01-15T00:39:51;3.70;3.40;2.70;1.80;14.36;14.32;14.14;13.32;10.38;70.98
84066;SPS30;74151;52.134;5.500;2024-01-15T00:42:25;6.02;5.33;3.81;1.94;15.66;15.59;15.23;13.49;9.21;84.29
84066;SPS30;74151;52.134;5.500;2024-01-15T00:45:02;3.63;3.37;2.77;1.98;15.64;15.61;15.49;14.77;11.76;65.99
84066;SPS30;74151;52.134;5.500;2024-01-15T00:47:42;4.70;4.23;3.19;1.88;15.13;15.07;14.86;13.63;10.09;75.14
84066;SPS30;74151;52.134;5.500;2024-01-15T00:50:17;3.11;2.93;2.57;2.04;16.11;16.10;16.01;15.54;12.77;58.21
84066;SPS30;74151;52.134;5.500;2024-01-15T00:52:53;3.06;2.80;2.21;1.44;11.69;11.62;11.51;10.81;8.38;72.09
84066;SPS30;74151;52.134;5.500;2024-01-15T00:55:28;4.30;3.89;2.89;1.69;13.38;13.34;13.11;11.98;8.77;80.39
84066;SPS30;74151;52.134;5.500;2024-01-15T00:58:08;2.83;2.63;2.22;1.66;13.13;13.11;13.02;12.50;10.08;68.81
84066;SPS30;74151;52.134;5.500;2024-01-15T01:00:47;4.08;3.74;3.08;2.16;17.04;17.01;16.87;16.02;12.67;65.02
84066;SPS30;74151;52.134;5.500;2024-01-15T01:03:22;2.86;2.66;2.21;1.60;12.83;12.80;12.70;12.17;9.78;57.86
84066;SPS30;74151;52.134;5.500;2024-01-15T01:05:56;4.92;4.40;3.26;1.79;14.57;14.52;14.26;12.93;9.34;90.99
84066;SPS30;74151;52.134;5.500;2024-01-15T01:08:33;3.37;3.20;2.87;2.37;18.73;18.73;18.64;18.21;15.12;63.60
84066;SPS30;74151;52.134;5.500;2024-01-15T01:11:13;2.61;2.50;2.22;1.83;14.47;14.46;14.39;14.03;11.64;57.98
84066;SPS30;74151;52.134;5.500;2024-01-15T01:13:51;3.89;3.51;2.72;1.71;13.70;13.67;13.48;12.56;9.54;72.82
84066;SPS30;74151;52.134;5.500;2024-01-15T01:16:29;3.81;3.43;2.58;1.51;12.13;12.09;11.91;10.92;8.04;87.19
84066;SPS30;74151;52.134;5.500;2024-01-15T01:19:09;3.06;3.03;2.97;2.76;21.64;21.64;21.60;21.47;18.33;48.60
84066;SPS30;74151;52.134;5.500;2024-01-15T01:21:43;3.63;3.30;2.54;1.60;12.68;12.62;12.48;11.59;8.79;81.39
84066;SPS30;74151;52.134;5.500;2024-01-15T01:24:20;4.04;3.60;2.59;1.34;10.87;10.82;10.60;9.44;6.54;101.56
84066;SPS30;74151;52.134;5.500;2024-01-15T01:26:57;3.76;3.44;2.74;1.83;14.70;14.62;14.50;13.68;10.66;62.33
84066;SPS30;74151;52.134;5.500;2024-01-15T01:29:31;4.71;4.17;3.03;1.59;12.70;12.62;12.38;11.02;7.66;94.34
84066;SPS30;74151;52.134;5.500;2024-01-15T01:32:06;6.06;5.31;3.74;1.81;14.71;14.63;14.28;12.47;8.27;105.64
84066;SPS30;74151;52.134;5.500;2024-01-15T01:34:40;6.19;5.48;3.93;2.06;16.48;16.39;16.04;14.28;9.87;97.32
84066;SPS30;74151;52.134;5.500;2024-01-15T01:37:15;6.03;5.29;3.69;1.70;13.82;13.74;13.38;11.51;7.39;99.47
84066;SPS30;74151;52.134;5.500;2024-01-15T01:39:52;4.34;3.82;2.70;1.31;10.78;10.72;10.49;9.20;6.18;93.13
84066;SPS30;74151;52.134;5.500;2024-01-15T01:42:31;5.33;4.81;3.64;2.20;17.53;17.47;17.21;15.88;11.83;72.94
84066;SPS30;74151;52.134;5.500;2024-01-15T01:45:08;7.94;6.94;4.83;2.21;17.90;17.79;17.33;14.89;9.46;98.68
84066;SPS30;74151;52.134;5.500;2024-01-15T01:47:47;3.77;3.33;2.43;1.34;10.71;10.68;10.49;9.46;6.71;83.41
84066;SPS30;74151;52.134;5.500;2024-01-15T01:50:24;5.80;5.03;3.39;1.39;11.20;11.10;10.76;8.86;5.01;108.36
84066;SPS30;74151;52.134;5.500;2024-01-15T01:53:00;4.74;4.30;3.37;2.12;16.94;16.92;16.71;15.57;11.89;79.99
84066;SPS30;74151;52.134;5.500;2024-01-15T01:55:36;6.91;5.91;3.77;1.21;10.02;9.92;9.44;7.02;2.67;131.12
84066;SPS30;74151;52.134;5.500;2024-01-15T01:58:17;4.70;4.17;3.08;1.71;13.60;13.57;13.29;12.03;8.60;92.13
84066;SPS30;74151;52.134;5.500;2024-01-15T02:00:53;5.49;4.84;3.37;1.58;12.80;12.74;12.40;10.73;6.94;103.27
84066;SPS30;74151;52.134;5.500;2024-01-15T02:03:32;5.14;4.54;3.22;1.56;12.69;12.61;12.31;10.79;7.18;89.02
84066;SPS30;74151;52.134;5.500;2024-01-15T02:06:09;5.16;4.58;3.28;1.68;13.61;13.54;13.26;11.79;8.11;105.71
84066;SPS30;74151;52.134;5.500;2024-01-15T02:08:49;6.00;5.21;3.49;1.40;11.43;11.34;10.98;9.02;5.06;109.92
84066;SPS30;74151;52.134;5.500;2024-01-15T02:11:24;6.94;5.97;3.82;1.22;10.24;10.13;9.67;7.23;2.86;117.26
84066;SPS30;74151;52.134;5.500;2024-01-15T02:13:58;6.10;5.38;3.80;1.89;15.23;15.17;14.82;13.03;8.78;102.11
84066;SPS30;74151;52.134;5.500;2024-01-15T02:16:35;4.38;3.88;2.76;1.37;10.98;10.92;10.67;9.38;6.29;89.97
84066;SPS30;74151;52.134;5.500;2024-01-15T02:19:18;4.22;3.81;2.88;1.69;13.54;13.50;13.30;12.20;9.00;89.33
84066;SPS30;74151;52.134;5.500;2024-01-15T02:21:55;6.11;5.30;3.57;1.48;12.02;11.96;11.56;9.58;5.53;99.64
84066;SPS30;74151;52.134;5.500;2024-01-15T02:24:32;9.87;8.44;5.34;1.66;13.82;13.68;13.01;9.52;3.34;132.18
84066;SPS30;74151;52.134;5.500;2024-01-15T02:27:07;4.01;3.50;2.37;0.98;8.10;8.01;7.81;6.50;3.81;102.08
84066;SPS30;74151;52.134;5.500;2024-01-15T02:29:44;4.53;3.92;2.61;1.04;8.52;8.46;8.16;6.68;3.71;111.74
84066;SPS30;74151;52.134;5.500;2024-01-15T02:32:21;2.77;2.47;1.82;1.02;8.23;8.20;8.08;7.32;5.29;82.26
84066;SPS30;74151;52.134;5.500;2024-01-15T02:34:57;2.72;2.50;1.97;1.32;10.49;10.46;10.34;9.74;7.56;81.09
84066;SPS30;74151;52.134;5.500;2024-01-15T02:37:32;4.83;4.23;3.02;1.51;12.12;12.06;11.79;10.39;6.99;93.31
84066;SPS30;74151;52.134;5.500;2024-01-15T02:40:06;6.03;5.22;3.42;1.28;10.57;10.49;10.09;8.07;4.13;112.49
84066;SPS30;74151;52.134;5.500;2024-01-15T02:42:41;7.29;6.21;3.93;1.17;9.83;9.72;9.22;6.62;2.11;132.11
84066;SPS30;74151;52.134;5.500;2024-01-15T02:45:17;5.00;4.48;3.36;1.99;15.80;15.74;15.50;14.22;10.46;90.88
84066;SPS30;74151;52.134;5.500;2024-01-15T02:47:54;3.29;2.97;2.28;1.41;11.31;11.29;11.11;10.30;7.78;80.93
84066;SPS30;74151;52.134;5.500;2024-01-15T02:50:31;3.94;3.36;2.14;0.62;5.37;5.31;5.03;3.64;1.18;128.97
84066;SPS30;74151;52.134;5.500;2024-01-15T02:53:05;2.24;2.01;1.54;0.92;7.40;7.39;7.29;6.70;5.02;77.59
84066;SPS30;74151;52.134;5.500;2024-01-15T02:55:42;2.67;2.29;1.53;0.63;5.08;5.04;4.87;4.03;2.27;100.04
84066;SPS30;74151;52.134;5.500;2024-01-15T02:58:18;3.79;3.26;2.10;0.68;5.68;5.62;5.38;4.06;1.67;109.78
84066;SPS30;74151;52.134;5.500;2024-01-15T03:00:55;2.86;2.58;1.94;1.19;9.28;9.22;9.08;8.36;6.22;83.36
84066;SPS30;74151;52.134;5.500;2024-01-15T03:03:32;1.24;1.22;1.18;1.07;8.32;8.32;8.31;8.22;6.98;45.86
84066;SPS30;74151;52.134;5.500;2024-01-15T03:06:06;1.48;1.39;1.16;0.90;7.02;7.02;6.96;6.70;5.44;68.96
84066;SPS30;74151;52.134;5.500;2024-01-15T03:08:43;2.97;2.60;1.82;0.92;7.44;7.42;7.24;6.39;4.28;80.31
84066;SPS30;74151;52.134;5.500;2024-01-15T03:11:20;4.98;4.27;2.67;0.79;6.47;6.39;6.07;4.29;1.20;120.37
84066;SPS30;74151;52.134;5.500;2024-01-15T03:13:59;3.88;3.32;2.12;0.70;5.82;5.74;5.47;4.12;1.67;119.89
84066;SPS30;74151;52.134;5.500;2024-01-15T03:16:33;4.27;3.72;2.56;1.11;9.08;8.99;8.72;7.38;4.51;102.78
84066;SPS30;74151;52.134;5.500;2024-01-15T03:19:10;2.82;2.44;1.70;0.77;6.28;6.22;6.06;5.18;3.27;87.71
84066;SPS30;74151;52.134;5.500;2024-01-15T03:21:46;5.19;4.48;2.93;1.01;8.57;8.48;8.14;6.38;3.03;107.51
84066;SPS30;74151;52.134;5.500;2024-01-15T03:24:23;3.28;2.84;1.91;0.77;6.46;6.41;6.21;5.16;2.97;104.91
84066;SPS30;74151;52.134;5.500;2024-01-15T03:26:57;3.53;3.07;2.08;0.90;7.13;7.06;6.84;5.72;3.37;105.50
84066;SPS30;74151;52.134;5.500;2024-01-15T03:29:34;5.14;4.50;3.10;1.38;11.30;11.20;10.90;9.32;5.79;85.12
84066;SPS30;74151;52.134;5.500;2024-01-15T03:32:11;2.31;2.11;1.77;1.28;9.99;9.99;9.89;9.44;7.52;71.39
84066;SPS30;74151;52.134;5.500;2024-01-15T03:34:48;3.27;2.84;1.91;0.78;6.36;6.32;6.10;5.04;2.89;103.11
84066;SPS30;74151;52.134;5.500;2024-01-15T03:37:25;2.86;2.48;1.66;0.64;5.39;5.31;5.16;4.20;2.33;110.09
84066;SPS30;74151;52.134;5.500;2024-01-15T03:40:00;4.46;3.98;2.90;1.60;12.81;12.74;12.51;11.28;8.04;100.89
84066;SPS30;74151;52.134;5.500;2024-01-15T03:42:35;1.02;1.01;0.99;0.92;7.11;7.10;7.09;7.06;6.00;42.53
84066;SPS30;74151;52.134;5.500;2024-01-15T03:45:09;1.96;1.83;1.53;1.18;9.30;9.29;9.21;8.89;7.18;57.62
84066;SPS30;74151;52.134;5.500;2024-01-15T03:47:44;2.32;2.23;2.00;1.70;13.44;13.44;13.40;13.11;10.93;52.06
84066;SPS30;74151;52.134;5.500;2024-01-15T03:50:21;4.08;3.68;2.79;1.71;13.59;13.56;13.37;12.34;9.24;89.52
84066;SPS30;74151;52.134;5.500;2024-01-15T03:52:55;2.66;2.49;2.14;1.66;13.10;13.09;13.01;12.57;10.26;60.29
84066;SPS30;74151;52.134;5.500;2024-01-15T03:55:34;6.12;5.33;3.63;1.57;12.77;12.68;12.31;10.36;6.26;98.13
84066;SPS30;74151;52.134;5.500;2024-01-15T03:58:08;2.01;1.99;1.90;1.73;13.64;13.63;13.63;13.47;11.48;45.04
84066;SPS30;74151;52.134;5.500;2024-01-15T04:00:47;2.84;2.57;1.92;1.14;8.98;8.96;8.80;8.06;5.93;90.58
84066;SPS30;74151;52.134;5.500;2024-01-15T04:03:21;4.53;3.96;2.73;1.21;10.00;9.92;9.64;8.24;5.17;97.57
84066;SPS30;74151;52.134;5.500;2024-01-15T04:05:58;2.46;2.27;1.86;1.30;10.53;10.51;10.43;9.94;7.90;72.19
84066;SPS30;74151;52.134;5.500;2024-01-15T04:08:33;2.43;2.30;2.03;1.63;12.99;12.98;12.91;12.56;10.37;50.33
84066;SPS30;74151;52.134;5.500;2024-01-15T04:11:12;2.48;2.38;2.14;1.76;13.81;13.80;13.73;13.42;11.12;60.00
84066;SPS30;74151;52.134;5.500;2024-01-15T04:13:49;3.40;3.07;2.38;1.50;11.90;11.88;11.71;10.87;8.27;70.00
84066;SPS30;74151;52.134;5.500;2024-01-15T04:16:26;2.51;2.39;2.11;1.71;13.51;13.51;13.41;13.08;10.80;56.33
84066;SPS30;74151;52.134;5.500;2024-01-15T04:19:04;2.18;2.06;1.73;1.30;10.49;10.47;10.41;10.02;8.14;61.28
84066;SPS30;74151;52.134;5.500;2024-01-15T04:21:41;1.79;1.68;1.39;1.00;7.82;7.81;7.73;7.39;5.90;63.90
84066;SPS30;74151;52.134;5.500;2024-01-15T04:24:16;2.74;2.54;2.09;1.48;11.69;11.68;11.57;10.99;8.73;78.20
84066;SPS30;74151;52.134;5.500;2024-01-15T04:26:50;2.92;2.56;1.82;0.89;7.13;7.11;6.93;6.07;4.04;88.90
84066;SPS30;74151;52.134;5.500;2024-01-15T04:29:27;1.44;1.31;1.03;0.70;5.56;5.56;5.46;5.14;4.01;66.78
84066;SPS30;74151;52.134;5.500;2024-01-15T04:32:02;4.34;3.82;2.69;1.27;10.16;10.10;9.84;8.53;5.53;98.50
84066;SPS30;74151;52.134;5.500;2024-01-15T04:34:38;2.67;2.40;1.79;1.02;8.28;8.23;8.12;7.41;5.43;84.71
84066;SPS30;74151;52.134;5.500;2024-01-15T04:37:15;3.06;2.83;2.32;1.64;13.19;13.16;13.04;12.42;9.91;68.60
84066;SPS30;74151;52.134;5.500;2024-01-15T04:39:50;1.86;1.77;1.63;1.40;10.96;10.93;10.91;10.71;8.96;47.49
84066;SPS30;74151;52.134;5.500;2024-01-15T04:42:27;2.91;2.66;2.12;1.40;11.12;11.10;10.98;10.31;8.00;66.37
84066;SPS30;74151;52.134;5.500;2024-01-15T04:45:01;4.96;4.29;2.83;1.10;8.94;8.87;8.57;6.92;3.64;111.28
84066;SPS30;74151;52.134;5.500;2024-01-15T04:47:36;4.53;3.94;2.63;1.02;8.49;8.42;8.13;6.64;3.64;101.27
84066;SPS30;74151;52.134;5.500;2024-01-15T04:50:13;5.66;4.89;3.28;1.31;10.67;10.58;10.24;8.39;4.66;100.38
84066;SPS30;74151;52.134;5.500;2024-01-15T04:52:52;5.47;4.67;3.01;0.99;8.06;7.98;7.59;5.69;2.26;118.23
84066;SPS30;74151;52.134;5.500;2024-01-15T04:55:29;3.21;2.81;1.96;0.88;7.09;7.04;6.84;5.84;3.67;96.38
84066;SPS30;74151;52.134;5.500;2024-01-15T04:58:06;1.78;1.64;1.38;1.06;8.28;8.27;8.22;7.90;6.40;71.82
84066;SPS30;74151;52.134;5.500;2024-01-15T05:00:43;3.24;2.93;2.19;1.27;10.28;10.22;10.07;9.20;6.76;83.57
84066;SPS30;74151;52.134;5.500;2024-01-15T05:03:20;2.13;1.96;1.59;1.07;8.68;8.64;8.56;8.11;6.36;62.04
84066;SPS30;74151;52.134;5.500;2024-01-15T05:05:57;3.71;3.37;2.61;1.63;13.09;13.07;12.88;12.00;9.12;63.48
84066;SPS30;74151;52.134;5.500;2024-01-15T05:08:36;2.96;2.71;2.19;1.51;12.03;11.99;11.88;11.26;8.83;70.99
84066;SPS30;74151;52.134;5.500;2024-01-15T05:11:12;4.72;4.08;2.70;1.00;8.32;8.26;7.94;6.37;3.30;99.79
84066;SPS30;74151;52.134;5.500;2024-01-15T05:13:47;1.93;1.89;1.81;1.64;12.90;12.89;12.88;12.73;10.83;49.66
84066;SPS30;74151;52.134;5.500;2024-01-15T05:16:23;4.33;3.82;2.72;1.36;10.88;10.81;10.54;9.28;6.22;94.44
84066;SPS30;74151;52.134;5.500;2024-01-15T05:19:00;4.94;4.39;3.16;1.61;13.03;12.96;12.69;11.26;7.74;84.79
84066;SPS30;74151;52.134;5.500;2024-01-15T05:21:39;3.83;3.49;2.73;1.74;13.96;13.90;13.73;12.83;9.84;90.19
84066;SPS30;74151;52.134;5.500;2024-01-15T05:24:17;3.13;2.76;1.94;0.92;7.51;7.43;7.27;6.33;4.16;94.93
84066;SPS30;74151;52.134;5.500;2024-01-15T05:26:53;2.97;2.72;2.20;1.52;12.19;12.18;12.06;11.43;9.02;62.59
84066;SPS30;74151;52.134;5.500;2024-01-15T05:29:30;3.36;3.04;2.40;1.57;12.62;12.59;12.46;11.67;9.03;78.62
84066;SPS30;74151;52.134;5.500;2024-01-15T05:32:09;3.92;3.44;2.44;1.21;9.68;9.63;9.40;8.26;5.52;89.83
84066;SPS30;74151;52.134;5.500;2024-01-15T05:34:46;2.50;2.32;1.96;1.46;11.57;11.52;11.44;11.00;8.88;73.01
84066;SPS30;74151;52.134;5.500;2024-01-15T05:37:23;3.23;2.93;2.30;1.44;11.58;11.51;11.40;10.60;8.10;69.49
84066;SPS30;74151;52.134;5.500;2024-01-15T05:39:57;3.54;3.13;2.27;1.20;9.77;9.73;9.53;8.54;6.00;88.50
84066;SPS30;74151;52.134;5.500;2024-01-15T05:42:32;3.54;3.20;2.50;1.58;12.57;12.54;12.36;11.51;8.79;76.06
84066;SPS30;74151;52.134;5.500;2024-01-15T05:45:07;3.90;3.58;2.89;2.01;15.90;15.87;15.70;14.88;11.70;72.90
84066;SPS30;74151;52.134;5.500;2024-01-15T05:47:44;3.46;3.17;2.59;1.81;14.41;14.37;14.24;13.52;10.72;68.98
84066;SPS30;74151;52.134;5.500;2024-01-15T05:50:23;5.24;4.72;3.62;2.19;17.51;17.46;17.21;15.91;11.92;91.68
84066;SPS30;74151;52.134;5.500;2024-01-15T05:52:57;3.74;3.43;2.78;1.90;15.14;15.11;14.96;14.16;11.11;80.32
84066;SPS30;74151;52.134;5.500;2024-01-15T05:55:37;2.29;2.19;2.03;1.73;13.74;13.73;13.70;13.47;11.29;60.33
84066;SPS30;74151;52.134;5.500;2024-01-15T05:58:14;5.38;4.82;3.57;2.00;16.00;15.92;15.64;14.21;10.24;93.09
84066;SPS30;74151;52.134;5.500;2024-01-15T06:00:48;5.34;4.81;3.62;2.10;17.00;16.93;16.67;15.27;11.27;96.54
84066;SPS30;74151;52.134;5.500;2024-01-15T06:03:23;5.04;4.47;3.27;1.78;14.28;14.19;13.90;12.52;8.87;85.72
84066;SPS30;74151;52.134;5.500;2024-01-15T06:05:59;6.23;5.36;3.53;1.31;10.78;10.69;10.29;8.22;4.18;132.62
84066;SPS30;74151;52.134;5.500;2024-01-15T06:08:37;4.46;3.92;2.72;1.27;10.32;10.26;10.00;8.63;5.58;115.23
84066;SPS30;74151;52.134;5.500;2024-01-15T06:11:13;3.14;2.94;2.50;1.87;14.73;14.72;14.62;14.04;11.38;69.32
84066;SPS30;74151;52.134;5.500;2024-01-15T06:13:52;2.98;2.70;2.17;1.47;11.53;11.49;11.36;10.69;8.34;71.42
84066;SPS30;74151;52.134;5.500;2024-01-15T06:16:27;4.87;4.24;2.97;1.40;11.24;11.17;10.88;9.40;6.06;92.30
84066;SPS30;74151;52.134;5.500;2024-01-15T06:19:05;3.62;3.32;2.63;1.76;14.01;13.96;13.81;13.02;10.13;81.60
84066;SPS30;74151;52.134;5.500;2024-01-15T06:21:41;3.56;3.21;2.46;1.51;11.94;11.92;11.74;10.88;8.17;89.72
84066;SPS30;74151;52.134;5.500;2024-01-15T06:24:16;3.64;3.34;2.73;1.90;15.10;15.08;14.93;14.18;11.20;66.23
84066;SPS30;74151;52.134;5.500;2024-01-15T06:26:52;3.98;3.70;3.10;2.29;18.24;18.21;18.09;17.34;13.98;78.34
84066;SPS30;74151;52.134;5.500;2024-01-15T06:29:27;4.68;4.41;3.84;3.01;23.83;23.80;23.69;22.96;18.80;64.24
84066;SPS30;74151;52.134;5.500;2024-01-15T06:32:06;3.02;2.84;2.54;2.08;16.38;16.34;16.28;15.87;13.13;64.02
84066;SPS30;74151;52.134;5.500;2024-01-15T06:34:42;3.40;3.32;3.17;2.87;22.46;22.43;22.39;22.13;18.77;57.69
84066;SPS30;74151;52.134;5.500;2024-01-15T06:37:17;3.63;3.48;3.14;2.62;20.72;20.69;20.62;20.17;16.81;65.72
84066;SPS30;74151;52.134;5.500;2024-01-15T06:39:52;2.73;2.58;2.30;1.84;14.63;14.63;14.54;14.16;11.67;46.64
84066;SPS30;74151;52.134;5.500;2024-01-15T06:42:27;5.16;4.63;3.51;2.07;16.52;16.49;16.23;14.90;11.02;82.62
84066;SPS30;74151;52.134;5.500;2024-01-15T06:45:03;3.42;3.12;2.46;1.64;13.04;13.01;12.88;12.09;9.39;79.63
84066;SPS30;74151;52.134;5.500;2024-01-15T06:47:43;3.98;3.70;3.12;2.34;18.46;18.43;18.30;17.59;14.19;67.20
84066;SPS30;74151;52.134;5.500;2024-01-15T06:50:22;1.83;1.81;1.73;1.58;12.34;12.34;12.33;12.18;10.34;49.64
84066;SPS30;74151;52.134;5.500;2024-01-15T06:53:00;2.18;2.18;2.18;2.08;16.17;16.17;16.17;16.10;13.81;41.71
84066;SPS30;74151;52.134;5.500;2024-01-15T06:55:37;2.74;2.72;2.62;2.41;18.91;18.90;18.88;18.72;15.96;51.60
84066;SPS30;74151;52.134;5.500;2024-01-15T06:58:14;3.10;3.04;2.94;2.68;21.13;21.13;21.11;20.91;17.78;54.01
84066;SPS30;74151;52.134;5.500;2024-01-15T07:00:51;2.83;2.80;2.74;2.56;19.93;19.91;19.91;19.74;16.87;44.11
84066;SPS30;74151;52.134;5.500;2024-01-15T07:03:25;4.24;4.06;3.71;3.13;24.69;24.66;24.58;24.09;20.11;51.20
84066;SPS30;74151;52.134;5.500;2024-01-15T07:06:00;3.48;3.44;3.36;3.10;24.30;24.29;24.27;24.07;20.54;43.14
84066;SPS30;74151;52.134;5.500;2024-01-15T07:08:34;3.01;3.01;3.01;2.86;22.50;22.49;22.48;22.40;19.23;42.61
84066;SPS30;74151;52.134;5.500;2024-01-15T07:11:11;2.94;2.94;2.94;2.80;22.02;22.02;22.01;21.94;18.83;37.17
84066;SPS30;74151;52.134;5.500;2024-01-15T07:13:47;3.53;3.44;3.33;3.03;23.83;23.82;23.81;23.57;20.04;45.34
84066;SPS30;74151;52.134;5.500;2024-01-15T07:16:22;3.89;3.88;3.80;3.56;27.90;27.89;27.87;27.69;23.68;46.88
84066;SPS30;74151;52.134;5.500;2024-01-15T07:19:09;3.81;3.81;3.81;3.63;28.67;28.66;28.66;28.53;24.51;41.61
84066;SPS30;74151;52.134;5.500;2024-01-15T07:21:46;4.10;4.10;4.10;3.92;30.83;30.82;30.82;30.70;26.38;42.87
84066;SPS30;74151;52.134;5.500;2024-01-15T07:24:26;3.97;3.97;3.97;3.78;29.67;29.67;29.66;29.54;25.37;37.68
84066;SPS30;74151;52.134;5.500;2024-01-15T07:27:03;4.42;4.23;3.83;3.20;25.22;25.18;25.09;24.54;20.44;59.92
84066;SPS30;74151;52.134;5.500;2024-01-15T07:29:40;4.36;4.36;4.36;4.14;32.58;32.58;32.57;32.43;27.86;31.74
84066;SPS30;74151;52.134;5.500;2024-01-15T07:32:18;4.17;4.17;4.17;3.97;31.17;31.16;31.14;31.01;26.63;41.58
84066;SPS30;74151;52.134;5.500;2024-01-15T07:34:53;3.64;3.64;3.64;3.48;27.39;27.38;27.38;27.28;23.41;40.90
84066;SPS30;74151;52.134;5.500;2024-01-15T07:37:32;4.64;4.64;4.64;4.42;34.86;34.86;34.84;34.72;29.81;41.17
84066;SPS30;74151;52.134;5.500;2024-01-15T07:40:06;5.37;5.30;5.13;4.68;36.92;36.92;36.87;36.54;31.11;52.60
84066;SPS30;74151;52.134;5.500;2024-01-15T07:42:43;7.34;7.29;7.19;6.76;53.11;53.10;53.07;52.76;45.14;44.79
84066;SPS30;74151;52.134;5.500;2024-01-15T07:45:18;5.17;5.17;5.17;4.91;38.64;38.63;38.62;38.48;33.04;38.29
84066;SPS30;74151;52.134;5.500;2024-01-15T07:47:57;4.76;4.76;4.76;4.54;35.62;35.62;35.59;35.48;30.46;43.64
84066;SPS30;74151;52.134;5.500;2024-01-15T07:50:37;4.71;4.71;4.71;4.49;35.21;35.21;35.19;35.06;30.11;36.62
84066;SPS30;74151;52.134;5.500;2024-01-15T07:53:14;5.49;5.49;5.49;5.26;41.21;41.21;41.21;41.02;35.24;38.14
84066;SPS30;74151;52.134;5.500;2024-01-15T07:55:49;6.33;6.33;6.33;6.03;47.49;47.49;47.49;47.29;40.62;40.09
84066;SPS30;74151;52.134;5.500;2024-01-15T07:58:25;6.21;6.13;5.94;5.46;43.00;42.99;42.93;42.58;36.29;47.28
84066;SPS30;74151;52.134;5.500;2024-01-15T08:01:02;5.46;5.46;5.46;5.21;40.97;40.94;40.94;40.80;35.02;37.20
84066;SPS30;74151;52.134;5.500;2024-01-15T08:03:37;4.34;4.31;4.26;3.98;31.48;31.47;31.44;31.28;26.74;44.76
84066;SPS30;74151;52.134;5.500;2024-01-15T08:06:11;4.32;4.32;4.32;4.13;32.47;32.46;32.46;32.33;27.77;37.19
84066;SPS30;74151;52.134;5.500;2024-01-15T08:08:49;5.03;5.00;4.88;4.53;35.76;35.74;35.69;35.47;30.30;45.14
84066;SPS30;74151;52.134;5.500;2024-01-15T08:11:26;3.76;3.76;3.76;3.58;28.13;28.12;28.11;28.01;24.06;39.97
84066;SPS30;74151;52.134;5.500;2024-01-15T08:14:03;4.18;4.18;4.18;3.98;31.33;31.33;31.31;31.20;26.79;38.87
84066;SPS30;74151;52.134;5.500;2024-01-15T08:16:42;4.66;4.66;4.64;4.42;34.76;34.76;34.76;34.61;29.71;43.22
84066;SPS30;74151;52.134;5.500;2024-01-15T08:19:16;5.97;5.97;5.97;5.67;44.56;44.52;44.51;44.36;38.10;39.40
84066;SPS30;74151;52.134;5.500;2024-01-15T08:21:52;4.64;4.64;4.64;4.43;34.87;34.86;34.84;34.70;29.82;43.28
84066;SPS30;74151;52.134;5.500;2024-01-15T08:24:29;4.74;4.74;4.74;4.52;35.46;35.46;35.46;35.33;30.33;34.33
84066;SPS30;74151;52.134;5.500;2024-01-15T08:27:06;5.07;4.98;4.83;4.43;34.78;34.77;34.73;34.41;29.30;46.87
84066;SPS30;74151;52.134;5.500;2024-01-15T08:29:40;5.12;5.12;5.12;4.89;38.42;38.42;38.41;38.24;32.83;36.97
84066;SPS30;74151;52.134;5.500;2024-01-15T08:32:17;5.73;5.73;5.73;5.47;42.96;42.96;42.96;42.78;36.74;39.66
84066;SPS30;74151;52.134;5.500;2024-01-15T08:34:51;7.02;6.91;6.63;6.02;47.44;47.41;47.34;46.88;39.83;46.16
84066;SPS30;74151;52.134;5.500;2024-01-15T08:37:28;7.93;7.93;7.93;7.57;59.47;59.46;59.44;59.20;50.84;40.89
84066;SPS30;74151;52.134;5.500;2024-01-15T08:40:03;7.16;7.16;7.16;6.83;53.73;53.71;53.71;53.51;45.93;38.64
84066;SPS30;74151;52.134;5.500;2024-01-15T08:42:40;6.07;6.07;6.07;5.79;45.50;45.50;45.49;45.31;38.92;38.89
84066;SPS30;74151;52.134;5.500;2024-01-15T08:45:15;5.74;5.67;5.50;5.07;39.88;39.88;39.82;39.49;33.67;48.81
84066;SPS30;74151;52.134;5.500;2024-01-15T08:47:58;6.33;6.28;6.09;5.60;43.99;43.98;43.96;43.58;37.12;45.23
84066;SPS30;74151;52.134;5.500;2024-01-15T08:50:36;5.78;5.73;5.67;5.31;41.87;41.87;41.84;41.57;35.60;46.91
84066;SPS30;74151;52.134;5.500;2024-01-15T08:53:10;5.82;5.80;5.77;5.47;42.98;42.98;42.96;42.76;36.66;46.18
84066;SPS30;74151;52.134;5.500;2024-01-15T08:55:47;4.58;4.58;4.58;4.37;34.37;34.34;34.32;34.22;29.39;41.76
84066;SPS30;74151;52.134;5.500;2024-01-15T08:58:23;5.29;5.20;5.01;4.59;36.09;36.07;36.01;35.67;30.34;49.13
84066;SPS30;74151;52.134;5.500;2024-01-15T09:01:04;4.70;4.62;4.42;3.98;31.46;31.44;31.38;31.04;26.36;55.11
84066;SPS30;74151;52.134;5.500;2024-01-15T09:03:39;3.71;3.71;3.71;3.56;27.88;27.87;27.87;27.72;23.81;41.87
84066;SPS30;74151;52.134;5.500;2024-01-15T09:06:15;2.92;2.91;2.90;2.76;21.67;21.67;21.67;21.56;18.49;43.16
84066;SPS30;74151;52.134;5.500;2024-01-15T09:08:52;3.36;3.36;3.36;3.18;25.10;25.10;25.10;25.00;21.46;37.40
84066;SPS30;74151;52.134;5.500;2024-01-15T09:11:26;2.98;2.96;2.93;2.77;21.74;21.73;21.72;21.61;18.50;43.73
84066;SPS30;74151;52.134;5.500;2024-01-15T09:14:01;3.01;2.97;2.86;2.57;20.23;20.21;20.19;19.97;16.93;51.27
84066;SPS30;74151;52.134;5.500;2024-01-15T09:16:40;3.98;3.80;3.49;2.96;23.40;23.39;23.30;22.86;19.13;55.68
84066;SPS30;74151;52.134;5.500;2024-01-15T09:19:17;3.56;3.53;3.47;3.22;25.44;25.44;25.43;25.27;21.60;47.92
84066;SPS30;74151;52.134;5.500;2024-01-15T09:21:56;3.70;3.68;3.59;3.36;26.33;26.33;26.30;26.12;22.31;45.63
84066;SPS30;74151;52.134;5.500;2024-01-15T09:24:30;2.30;2.30;2.30;2.20;17.11;17.11;17.11;17.08;14.63;38.27
84066;SPS30;74151;52.134;5.500;2024-01-15T09:27:07;4.39;4.13;3.59;2.83;22.37;22.32;22.19;21.51;17.62;56.82
84066;SPS30;74151;52.134;5.500;2024-01-15T09:29:46;5.66;5.18;4.16;2.81;22.38;22.31;22.10;20.83;16.31;74.91
84066;SPS30;74151;52.134;5.500;2024-01-15T09:32:23;2.41;2.29;2.02;1.63;12.74;12.73;12.69;12.31;10.16;63.97
84066;SPS30;74151;52.134;5.500;2024-01-15T09:35:02;2.98;2.77;2.39;1.83;14.46;14.44;14.36;13.88;11.28;54.64
84066;SPS30;74151;52.134;5.500;2024-01-15T09:37:36;4.84;4.53;3.84;2.92;23.12;23.09;22.93;22.11;17.93;70.43
84066;SPS30;74151;52.134;5.500;2024-01-15T09:40:20;2.68;2.64;2.59;2.41;18.97;18.94;18.93;18.80;16.08;46.72
84066;SPS30;74151;52.134;5.500;2024-01-15T09:42:57;5.39;4.94;4.03;2.83;22.38;22.32;22.11;21.01;16.60;74.43
84066;SPS30;74151;52.134;5.500;2024-01-15T09:45:35;3.97;3.68;3.04;2.20;17.34;17.33;17.18;16.39;13.08;72.16